Airfield :
LOGIN :

Register | Disclaimer

   EN    FR    IT 

 










Legend :    VFR   Marginal VFR   IFR   Intensive IFR   Very Intensive IFR
Visi :
Ceiling :
>= 8 km
>= 3000ft
5 to 8 km
1000 to 3000 ft
1500m to 5 km
500 to 1000 ft
800 to 1500m
200 to 500 ft
< 800m
< 200 ft
Symbols :   Thunderstorms  Fog  Heavy snow  Heavy precipitations  Wind > 20 kt
SIGMETs :     Misc.  Thunderstorms  Icing  Turbulence  Mountain Waves  Volcanic Ashes







- Airport Elevation : 1115 ft
- IATA code : GRZ


LOWG - Graz

CURRENT METAR :
  • 181520Z 15007KT 120V180 9999 FEW045 24/13 Q1019 NOSIG

EXPIRED METARs :
  • 181450Z 15008KT 9999 FEW045 25/11 Q1019 NOSIG
  • 181420Z 14006KT 100V170 9999 FEW040 25/14 Q1019 NOSIG
  • 181350Z 14009KT 9999 FEW040 25/12 Q1020 NOSIG
  • 181320Z 14009KT 9999 FEW035 25/12 Q1020 NOSIG
  • 181250Z 13008KT 090V160 9999 FEW035 25/13 Q1020 NOSIG

TAF TAF LOWG
Valid from the 18 at 12:00 until the 19 at 12:00 UTC


181115Z 1812/1912 15006KT 9999 FEW040 TX26/1814Z TN13/1904Z
TEMPO 1812/1815 13009KT SCT050
BECMG 1815/1817 VRB02KT
PROB40 1903/1907 0300 BCFG NSC
TEMPO 1910/1912 12004KT FEW050CB
No reported NOTAMs for that airfield.



MET'MAP, your aeronautical weather chart ! - Copyright ORBIFLY December 2007 - Disclaimer

ORBIFLY MET'MAP TEAM :

Programming & Development : Alexandra Zaïnal
Concept & Development : Baudouin d'Aumeries
Co-Development & Prog : Marc-Olivier Méhu
Technical & hardware support : Manuel Goepfert

Contact : metmap@orbifly.com




SOURCES & CREDITS :

   NOAA